Terminal Aerodrome Forecast
Issued by NWS

Home | Current Version | Previous Version | Graphics & Text | Print | Product List | Glossary On
Versions: 1 2 3 4 5 6 7 8 9 10 11 12 13 14 15 16
439
FTUS43 KGRB 302332
TAFCWA
TAF
KCWA 302332Z 0100/0124 21004KT P6SM -RA SCT008 BKN040
      TEMPO 0100/0104 5SM -RASN BR BKN008 OVC020
     FM010400 VRB03KT 5SM -RASN BR BKN008 OVC012
     FM010900 29006KT 6SM -SN BR OVC008
     FM011200 29007KT P6SM -SN OVC010
     FM011800 30009KT P6SM OVC020=

USA.gov is the U.S. government's official web portal to all federal, state and local government web resources and services.